Time;durP1;ratioP1;P1;durP2;ratioP2;P2;SDS_P1;SDS_P2;PMS_P1;PMS_P2;Temp;Humidity;BMP_temperature;BMP_pressure;BME280_temperature;BME280_humidity;BME280_pressure;Samples;Min_cycle;Max_cycle;Signal;HPM_P1;HPM_P2
2023/04/17 00:01:43;;;;;;;6.32;5.70;;;;;;;;;;4967091;28;20089;-40
2023/04/17 00:04:09;;;;;;;8.27;5.03;;;;;;;;;;4967432;28;20050;-42
2023/04/17 00:06:44;;;;;;;6.60;5.05;;;;;;;;;;4966447;28;20039;-44
2023/04/17 00:09:12;;;;;;;5.45;4.93;;;;;;;;;;4962915;28;20054;-40
2023/04/17 00:11:38;;;;;;;5.78;5.18;;;;;;;;;;4967352;28;20488;-44
2023/04/17 00:14:04;;;;;;;5.50;4.95;;;;;;;;;;4967537;28;20114;-47
2023/04/17 00:16:30;;;;;;;5.82;5.10;;;;;;;;;;4967304;28;20042;-46
2023/04/17 00:18:56;;;;;;;5.35;4.85;;;;;;;;;;4967250;28;20709;-40
2023/04/17 00:21:21;;;;;;;6.25;4.97;;;;;;;;;;4967960;28;20035;-41
2023/04/17 00:23:46;;;;;;;6.60;5.95;;;;;;;;;;4969466;28;20019;-44
2023/04/17 00:26:12;;;;;;;9.38;5.15;;;;;;;;;;4967850;28;20050;-42
2023/04/17 00:28:37;;;;;;;7.45;5.72;;;;;;;;;;4970693;28;20034;-45
2023/04/17 00:31:04;;;;;;;5.53;5.03;;;;;;;;;;4969588;28;20496;-41
2023/04/17 00:33:30;;;;;;;6.50;5.20;;;;;;;;;;4969410;28;20027;-40
2023/04/17 00:35:56;;;;;;;9.20;5.35;;;;;;;;;;4970049;28;20165;-47
2023/04/17 00:38:21;;;;;;;6.40;5.80;;;;;;;;;;4967189;28;20110;-41
2023/04/17 00:40:47;;;;;;;6.75;5.47;;;;;;;;;;4965855;28;20043;-41
2023/04/17 00:43:13;;;;;;;6.72;5.53;;;;;;;;;;4967038;28;20503;-44
2023/04/17 00:45:40;;;;;;;8.07;6.05;;;;;;;;;;4966047;28;20123;-45
2023/04/17 00:48:06;;;;;;;7.60;5.78;;;;;;;;;;4964286;28;20118;-46
2023/04/17 00:50:32;;;;;;;13.13;5.63;;;;;;;;;;4969056;28;20650;-41
2023/04/17 00:52:58;;;;;;;8.88;6.47;;;;;;;;;;4966630;28;20488;-44
2023/04/17 00:55:25;;;;;;;7.88;6.63;;;;;;;;;;4967156;28;20034;-50
2023/04/17 00:57:50;;;;;;;9.18;6.18;;;;;;;;;;4969027;28;20027;-41
2023/04/17 01:00:17;;;;;;;6.45;5.07;;;;;;;;;;4968535;28;20490;-41
2023/04/17 01:02:43;;;;;;;12.73;6.80;;;;;;;;;;4968266;28;20550;-47
2023/04/17 01:05:09;;;;;;;7.60;6.18;;;;;;;;;;4966437;28;20058;-44
2023/04/17 01:07:36;;;;;;;7.93;6.28;;;;;;;;;;4970191;28;20479;-41
2023/04/17 01:10:02;;;;;;;7.50;6.55;;;;;;;;;;4961908;28;20487;-45
2023/04/17 01:12:28;;;;;;;7.07;5.93;;;;;;;;;;4966901;28;20073;-44
2023/04/17 01:14:55;;;;;;;6.55;5.95;;;;;;;;;;4966181;28;20031;-41
2023/04/17 01:17:21;;;;;;;8.32;6.43;;;;;;;;;;4968303;28;20443;-47
2023/04/17 01:19:48;;;;;;;8.07;6.50;;;;;;;;;;4967621;28;20420;-44
2023/04/17 01:22:15;;;;;;;9.02;7.03;;;;;;;;;;4968712;28;20035;-42
2023/04/17 01:24:40;;;;;;;11.05;6.68;;;;;;;;;;4969614;28;20126;-43
2023/04/17 01:27:06;;;;;;;8.07;6.75;;;;;;;;;;4966855;28;20125;-46
2023/04/17 01:29:33;;;;;;;7.88;6.90;;;;;;;;;;4964832;28;20047;-43
2023/04/17 01:31:58;;;;;;;9.30;7.43;;;;;;;;;;4965621;28;20050;-44
2023/04/17 01:34:24;;;;;;;10.55;7.40;;;;;;;;;;4966426;28;20717;-43
2023/04/17 01:36:49;;;;;;;10.10;7.22;;;;;;;;;;4961590;28;20555;-42
2023/04/17 01:39:15;;;;;;;10.20;7.43;;;;;;;;;;4964186;28;20027;-47
2023/04/17 01:41:41;;;;;;;7.07;6.38;;;;;;;;;;4963268;28;20101;-44
2023/04/17 01:44:06;;;;;;;9.45;6.80;;;;;;;;;;4970387;28;20035;-44
2023/04/17 01:46:31;;;;;;;10.18;7.18;;;;;;;;;;4966953;28;20056;-40
2023/04/17 01:48:57;;;;;;;8.45;6.43;;;;;;;;;;4969022;28;20488;-43
2023/04/17 01:51:22;;;;;;;8.85;6.60;;;;;;;;;;4954464;28;20117;-44
2023/04/17 01:53:48;;;;;;;7.35;6.30;;;;;;;;;;4948632;28;20038;-42
2023/04/17 01:56:13;;;;;;;11.23;6.70;;;;;;;;;;4951472;28;20047;-49
2023/04/17 01:58:39;;;;;;;7.40;6.22;;;;;;;;;;4951267;28;20038;-40
2023/04/17 02:01:05;;;;;;;9.45;6.75;;;;;;;;;;4951380;28;20464;-45
2023/04/17 02:03:31;;;;;;;10.93;6.55;;;;;;;;;;4948441;28;20027;-51
2023/04/17 02:05:57;;;;;;;8.07;6.22;;;;;;;;;;4950768;28;20086;-44
2023/04/17 02:08:26;;;;;;;7.07;6.15;;;;;;;;;;4952055;28;20110;-48
2023/04/17 02:10:51;;;;;;;7.53;6.55;;;;;;;;;;4947980;28;20121;-44
2023/04/17 02:13:17;;;;;;;9.77;5.97;;;;;;;;;;4955052;28;20038;-42
2023/04/17 02:15:42;;;;;;;8.90;6.18;;;;;;;;;;4952856;28;20053;-43
2023/04/17 02:18:08;;;;;;;9.77;6.47;;;;;;;;;;4964312;28;20462;-40
2023/04/17 02:20:34;;;;;;;7.30;6.22;;;;;;;;;;4969228;28;20046;-40
2023/04/17 02:23:00;;;;;;;7.07;6.18;;;;;;;;;;4965169;28;20503;-41
2023/04/17 02:25:27;;;;;;;8.20;6.28;;;;;;;;;;4964277;28;20058;-41
2023/04/17 02:27:55;;;;;;;7.53;5.97;;;;;;;;;;4968717;28;20042;-40
2023/04/17 02:30:22;;;;;;;7.10;5.82;;;;;;;;;;4967571;28;20162;-42
2023/04/17 02:32:52;;;;;;;7.45;5.40;;;;;;;;;;4963875;28;20118;-43
2023/04/17 02:35:19;;;;;;;7.60;6.15;;;;;;;;;;4967907;28;20028;-41
2023/04/17 02:37:45;;;;;;;8.25;5.95;;;;;;;;;;4966911;28;20038;-41
2023/04/17 02:40:11;;;;;;;7.22;5.40;;;;;;;;;;4965807;28;21013;-41
2023/04/17 02:42:36;;;;;;;6.20;5.63;;;;;;;;;;4969238;28;20037;-40
2023/04/17 02:45:03;;;;;;;7.05;5.70;;;;;;;;;;4967368;28;20113;-40
2023/04/17 02:47:28;;;;;;;7.43;5.95;;;;;;;;;;4962918;28;20032;-41
2023/04/17 02:49:55;;;;;;;7.85;6.00;;;;;;;;;;4967023;28;20050;-41
2023/04/17 02:52:21;;;;;;;5.88;5.28;;;;;;;;;;4964881;28;20547;-41
2023/04/17 02:54:46;;;;;;;7.90;6.53;;;;;;;;;;4966271;28;20069;-41
2023/04/17 02:57:11;;;;;;;10.35;6.57;;;;;;;;;;4949055;28;20071;-40
2023/04/17 02:59:37;;;;;;;7.90;5.80;;;;;;;;;;4948673;28;20028;-40
2023/04/17 03:02:03;;;;;;;7.40;5.60;;;;;;;;;;4962548;28;20109;-41
2023/04/17 03:04:28;;;;;;;6.97;6.07;;;;;;;;;;4964239;28;20046;-40
2023/04/17 03:06:54;;;;;;;6.72;5.53;;;;;;;;;;4961270;28;20047;-42
2023/04/17 03:09:21;;;;;;;8.32;6.15;;;;;;;;;;4967289;28;20031;-40
2023/04/17 03:11:49;;;;;;;8.20;6.18;;;;;;;;;;4963585;28;20066;-40
2023/04/17 03:14:14;;;;;;;7.30;5.85;;;;;;;;;;4962708;28;20027;-45
2023/04/17 03:16:40;;;;;;;7.32;5.70;;;;;;;;;;4965029;28;20035;-41
2023/04/17 03:19:05;;;;;;;8.00;6.13;;;;;;;;;;4966731;28;20034;-41
2023/04/17 03:21:31;;;;;;;11.05;6.45;;;;;;;;;;4964520;28;20205;-47
2023/04/17 03:23:56;;;;;;;8.85;5.70;;;;;;;;;;4961998;28;20054;-49
2023/04/17 03:26:21;;;;;;;7.32;5.85;;;;;;;;;;4965881;28;20039;-41
2023/04/17 03:28:47;;;;;;;7.32;6.15;;;;;;;;;;4965659;28;20022;-42
2023/04/17 03:31:12;;;;;;;7.20;6.15;;;;;;;;;;4966908;28;20039;-42
2023/04/17 03:33:38;;;;;;;6.63;6.03;;;;;;;;;;4964673;28;20022;-41
2023/04/17 03:36:03;;;;;;;7.90;5.43;;;;;;;;;;4967029;28;20053;-43
2023/04/17 03:38:29;;;;;;;8.40;5.68;;;;;;;;;;4966740;28;20042;-41
2023/04/17 03:40:54;;;;;;;6.18;5.15;;;;;;;;;;4966320;28;20557;-41
2023/04/17 03:43:19;;;;;;;6.80;5.93;;;;;;;;;;4965336;28;20038;-40
2023/04/17 03:45:45;;;;;;;7.75;5.63;;;;;;;;;;4964179;28;20126;-42
2023/04/17 03:48:10;;;;;;;7.18;5.57;;;;;;;;;;4967130;28;20039;-42
2023/04/17 03:50:36;;;;;;;7.43;5.70;;;;;;;;;;4962349;28;20045;-40
2023/04/17 03:53:01;;;;;;;7.38;5.82;;;;;;;;;;4966784;28;20047;-41
2023/04/17 03:55:26;;;;;;;17.90;7.47;;;;;;;;;;4961467;28;20044;-40
2023/04/17 03:57:52;;;;;;;6.00;5.40;;;;;;;;;;4947272;28;20043;-42
2023/04/17 04:00:18;;;;;;;9.27;5.40;;;;;;;;;;4949888;28;20047;-41
2023/04/17 04:02:43;;;;;;;5.53;4.97;;;;;;;;;;4961017;28;20073;-41
2023/04/17 04:05:09;;;;;;;7.50;5.35;;;;;;;;;;4964341;28;20019;-40
2023/04/17 04:07:34;;;;;;;8.90;5.88;;;;;;;;;;4958634;28;20039;-40
2023/04/17 04:09:59;;;;;;;7.38;5.18;;;;;;;;;;4959534;28;20118;-41
2023/04/17 04:12:25;;;;;;;6.25;5.60;;;;;;;;;;4963141;28;20046;-40
2023/04/17 04:14:50;;;;;;;8.75;6.18;;;;;;;;;;4965327;28;20027;-41
2023/04/17 04:17:15;;;;;;;5.70;5.13;;;;;;;;;;4967422;28;20070;-39
2023/04/17 04:19:42;;;;;;;7.63;6.10;;;;;;;;;;4966548;28;20117;-41
2023/04/17 04:22:09;;;;;;;6.97;5.60;;;;;;;;;;4963756;28;20111;-40
2023/04/17 04:24:34;;;;;;;8.38;5.68;;;;;;;;;;4961304;28;20383;-40
2023/04/17 04:27:04;;;;;;;7.82;5.57;;;;;;;;;;4964533;28;20070;-40
2023/04/17 04:29:30;;;;;;;6.32;5.55;;;;;;;;;;4968113;28;20030;-41
2023/04/17 04:31:55;;;;;;;10.20;6.05;;;;;;;;;;4965304;28;20066;-42
2023/04/17 04:34:24;;;;;;;9.02;5.85;;;;;;;;;;4967013;28;20031;-41
2023/04/17 04:36:52;;;;;;;7.13;5.70;;;;;;;;;;4969089;28;20050;-40
2023/04/17 04:39:19;;;;;;;9.88;5.50;;;;;;;;;;4965995;28;20035;-40
2023/04/17 04:41:49;;;;;;;6.88;5.70;;;;;;;;;;4973193;28;20050;-40
2023/04/17 04:44:18;;;;;;;8.02;5.80;;;;;;;;;;4968339;28;20380;-42
2023/04/17 04:46:44;;;;;;;6.97;5.53;;;;;;;;;;4969140;28;20383;-40
2023/04/17 04:49:09;;;;;;;6.28;5.63;;;;;;;;;;4966781;28;20038;-40
2023/04/17 04:51:35;;;;;;;7.45;5.85;;;;;;;;;;4967137;28;20073;-40
2023/04/17 04:54:01;;;;;;;10.75;6.30;;;;;;;;;;4966087;28;20497;-40
2023/04/17 04:56:27;;;;;;;9.40;6.15;;;;;;;;;;4967058;28;20039;-40
2023/04/17 04:58:52;;;;;;;8.82;6.40;;;;;;;;;;4968293;28;20043;-40
2023/04/17 05:01:18;;;;;;;7.43;6.07;;;;;;;;;;4968948;28;20043;-41
2023/04/17 05:03:44;;;;;;;7.72;5.57;;;;;;;;;;4969363;28;20790;-41
2023/04/17 05:06:10;;;;;;;6.95;5.85;;;;;;;;;;4968553;28;20035;-41
2023/04/17 05:08:36;;;;;;;7.28;5.90;;;;;;;;;;4967826;28;20033;-42
2023/04/17 05:11:01;;;;;;;8.27;5.85;;;;;;;;;;4967786;28;20035;-40
2023/04/17 05:13:29;;;;;;;7.93;5.82;;;;;;;;;;4969351;28;20112;-42
2023/04/17 05:15:55;;;;;;;9.20;6.13;;;;;;;;;;4965981;28;20035;-38
2023/04/17 05:18:20;;;;;;;6.80;5.20;;;;;;;;;;4967430;28;20034;-40
2023/04/17 05:20:45;;;;;;;6.78;5.82;;;;;;;;;;4965387;28;20039;-41
2023/04/17 05:23:11;;;;;;;6.45;5.55;;;;;;;;;;4962592;28;20574;-40
2023/04/17 05:25:36;;;;;;;6.95;5.38;;;;;;;;;;4968287;28;20038;-42
2023/04/17 05:28:02;;;;;;;6.00;5.40;;;;;;;;;;4969820;28;20038;-40
2023/04/17 05:30:27;;;;;;;6.68;5.35;;;;;;;;;;4968621;28;20163;-40
2023/04/17 05:32:53;;;;;;;6.35;5.18;;;;;;;;;;4966185;28;20035;-40
2023/04/17 05:35:18;;;;;;;5.85;4.75;;;;;;;;;;4966528;28;20035;-40
2023/04/17 05:37:44;;;;;;;6.40;5.05;;;;;;;;;;4962141;28;20439;-40
2023/04/17 05:40:09;;;;;;;7.57;5.30;;;;;;;;;;4965946;28;20030;-40
2023/04/17 05:42:35;;;;;;;6.07;5.28;;;;;;;;;;4971387;28;20042;-43
2023/04/17 05:45:00;;;;;;;6.65;4.72;;;;;;;;;;4965738;28;20023;-50
2023/04/17 05:47:26;;;;;;;6.82;4.88;;;;;;;;;;4965924;28;20122;-40
2023/04/17 05:49:56;;;;;;;5.40;4.57;;;;;;;;;;4967922;28;20038;-41
2023/04/17 05:52:21;;;;;;;6.60;4.72;;;;;;;;;;4967712;28;20038;-41
2023/04/17 05:54:47;;;;;;;9.57;4.78;;;;;;;;;;4967928;28;20031;-40
2023/04/17 05:57:12;;;;;;;6.05;5.07;;;;;;;;;;4968788;28;20523;-42
2023/04/17 05:59:38;;;;;;;5.95;4.63;;;;;;;;;;4965919;28;20094;-43
2023/04/17 06:02:03;;;;;;;4.93;4.47;;;;;;;;;;4964151;28;20119;-44
2023/04/17 06:04:29;;;;;;;7.00;5.45;;;;;;;;;;4964375;28;20105;-44
2023/04/17 06:06:54;;;;;;;6.00;5.22;;;;;;;;;;4965596;28;20047;-40
2023/04/17 06:09:20;;;;;;;6.28;4.95;;;;;;;;;;4966245;28;20055;-40
2023/04/17 06:11:46;;;;;;;6.28;5.32;;;;;;;;;;4964885;28;20049;-43
2023/04/17 06:14:11;;;;;;;10.70;5.15;;;;;;;;;;4966221;28;20027;-40
2023/04/17 06:16:37;;;;;;;5.95;4.72;;;;;;;;;;4967623;28;20049;-40
2023/04/17 06:19:02;;;;;;;7.20;5.15;;;;;;;;;;4967342;28;20027;-41
2023/04/17 06:21:27;;;;;;;4.78;4.35;;;;;;;;;;4964617;28;20028;-45
2023/04/17 06:23:53;;;;;;;9.20;5.60;;;;;;;;;;4963321;28;20494;-42
2023/04/17 06:26:18;;;;;;;11.13;4.68;;;;;;;;;;4965691;28;20039;-40
2023/04/17 06:28:43;;;;;;;5.07;4.57;;;;;;;;;;4968523;28;20033;-41
2023/04/17 06:31:09;;;;;;;6.95;4.53;;;;;;;;;;4953557;28;20035;-40
2023/04/17 06:33:34;;;;;;;4.60;4.05;;;;;;;;;;4948461;28;20093;-42
2023/04/17 06:36:00;;;;;;;5.07;4.57;;;;;;;;;;4950332;28;20035;-40
2023/04/17 06:38:25;;;;;;;9.82;4.97;;;;;;;;;;4969055;28;20122;-40
2023/04/17 06:40:51;;;;;;;6.13;4.60;;;;;;;;;;4965449;28;20109;-40
2023/04/17 06:43:16;;;;;;;5.72;4.53;;;;;;;;;;4964080;28;20026;-42
2023/04/17 06:45:42;;;;;;;17.58;5.10;;;;;;;;;;4964018;28;20415;-40
2023/04/17 06:48:07;;;;;;;4.78;4.38;;;;;;;;;;4964610;28;20065;-40
2023/04/17 06:50:33;;;;;;;4.70;4.15;;;;;;;;;;4967456;28;20488;-40
2023/04/17 06:52:58;;;;;;;4.57;4.20;;;;;;;;;;4963930;28;20082;-40
2023/04/17 06:55:24;;;;;;;4.20;3.80;;;;;;;;;;4960745;28;20439;-41
2023/04/17 06:57:50;;;;;;;5.03;4.47;;;;;;;;;;4958910;28;20484;-41
2023/04/17 07:00:16;;;;;;;8.07;4.07;;;;;;;;;;4965944;28;20034;-42
2023/04/17 07:02:41;;;;;;;4.32;3.92;;;;;;;;;;4964213;28;20038;-42
2023/04/17 07:05:07;;;;;;;3.80;3.45;;;;;;;;;;4966100;28;20472;-41
2023/04/17 07:07:34;;;;;;;5.32;3.45;;;;;;;;;;4962040;28;20037;-43
2023/04/17 07:09:59;;;;;;;3.55;3.25;;;;;;;;;;4964087;28;20030;-40
2023/04/17 07:12:26;;;;;;;7.47;3.58;;;;;;;;;;4947245;28;20395;-43
2023/04/17 07:14:51;;;;;;;5.53;3.00;;;;;;;;;;4948171;28;20039;-40
2023/04/17 07:17:17;;;;;;;3.95;3.40;;;;;;;;;;4964435;28;20047;-41
2023/04/17 07:19:42;;;;;;;5.38;3.88;;;;;;;;;;4960993;28;20107;-40
2023/04/17 07:22:08;;;;;;;5.47;3.35;;;;;;;;;;4967391;28;20480;-40
2023/04/17 07:24:34;;;;;;;2.78;2.58;;;;;;;;;;4965391;28;20062;-41
2023/04/17 07:27:01;;;;;;;3.53;2.75;;;;;;;;;;4962486;28;20507;-40
2023/04/17 07:29:26;;;;;;;4.13;2.92;;;;;;;;;;4964085;28;20460;-44
2023/04/17 07:31:52;;;;;;;4.68;3.17;;;;;;;;;;4966556;28;20050;-45
2023/04/17 07:34:17;;;;;;;6.75;2.88;;;;;;;;;;4966044;28;20034;-44
2023/04/17 07:36:43;;;;;;;5.93;3.30;;;;;;;;;;4968122;28;20070;-47
2023/04/17 07:39:08;;;;;;;6.38;3.10;;;;;;;;;;4962890;28;20031;-43
2023/04/17 07:41:33;;;;;;;3.38;3.08;;;;;;;;;;4963484;28;20053;-41
2023/04/17 07:44:02;;;;;;;2.95;2.65;;;;;;;;;;4966577;28;20030;-45
2023/04/17 07:46:27;;;;;;;3.55;3.08;;;;;;;;;;4963852;28;20456;-42
2023/04/17 07:48:52;;;;;;;4.72;2.60;;;;;;;;;;4964367;28;20039;-46
2023/04/17 07:51:18;;;;;;;5.57;2.95;;;;;;;;;;4962520;28;20043;-44
2023/04/17 07:53:43;;;;;;;3.53;3.20;;;;;;;;;;4956315;28;20392;-40
2023/04/17 07:56:08;;;;;;;3.65;2.70;;;;;;;;;;4963125;28;20035;-40
2023/04/17 07:58:37;;;;;;;3.47;2.95;;;;;;;;;;4965745;28;20117;-41
2023/04/17 08:01:05;;;;;;;3.20;2.47;;;;;;;;;;4965001;28;20035;-43
2023/04/17 08:03:31;;;;;;;4.40;2.55;;;;;;;;;;4966115;28;20377;-43
2023/04/17 08:05:57;;;;;;;2.95;2.50;;;;;;;;;;4965264;28;20069;-40
2023/04/17 08:08:23;;;;;;;5.20;2.38;;;;;;;;;;4967757;28;20026;-45
2023/04/17 08:10:49;;;;;;;3.35;2.22;;;;;;;;;;4967134;28;20513;-42
2023/04/17 08:13:15;;;;;;;4.10;2.20;;;;;;;;;;4966278;28;20023;-48
2023/04/17 08:15:40;;;;;;;2.60;2.40;;;;;;;;;;4967292;28;20031;-44
2023/04/17 08:18:07;;;;;;;2.42;2.22;;;;;;;;;;4985236;28;20042;-43
2023/04/17 08:20:32;;;;;;;2.13;1.98;;;;;;;;;;4969398;28;20129;-40
2023/04/17 08:22:58;;;;;;;7.85;1.90;;;;;;;;;;4967936;28;20110;-43
2023/04/17 08:25:24;;;;;;;2.03;1.92;;;;;;;;;;4965361;28;20173;-41
2023/04/17 08:27:49;;;;;;;1.92;1.77;;;;;;;;;;4967806;28;20034;-44
2023/04/17 08:30:16;;;;;;;5.03;1.90;;;;;;;;;;4967266;28;20031;-49
2023/04/17 08:32:46;;;;;;;2.17;1.92;;;;;;;;;;4969016;28;20555;-41
2023/04/17 08:35:13;;;;;;;2.33;1.92;;;;;;;;;;4969273;28;20041;-47
2023/04/17 08:37:45;;;;;;;1.90;1.80;;;;;;;;;;4967542;28;20027;-50
2023/04/17 08:40:12;;;;;;;;;;;;;;;;;;4967356;28;20149;-43
2023/04/17 08:42:40;;;;;;;2.53;1.95;;;;;;;;;;4968789;28;19921;-46
2023/04/17 08:45:10;;;;;;;2.17;2.03;;;;;;;;;;4968966;28;20468;-44
2023/04/17 08:47:41;;;;;;;3.78;2.20;;;;;;;;;;4970161;28;20050;-47
2023/04/17 08:50:15;;;;;;;5.93;2.33;;;;;;;;;;4966993;28;20046;-43
2023/04/17 08:52:44;;;;;;;2.17;1.88;;;;;;;;;;4969392;28;20034;-40
2023/04/17 08:55:14;;;;;;;1.90;1.80;;;;;;;;;;4969780;28;20113;-40
2023/04/17 08:58:07;;;;;;;2.03;1.83;;;;;;;;;;4969419;28;20125;-42
2023/04/17 09:00:34;;;;;;;2.65;2.03;;;;;;;;;;4964917;28;20151;-43
2023/04/17 09:03:02;;;;;;;10.45;2.10;;;;;;;;;;4965732;28;20034;-44
2023/04/17 09:05:29;;;;;;;2.70;1.90;;;;;;;;;;4968740;28;20055;-40
2023/04/17 09:08:19;;;;;;;4.03;2.13;;;;;;;;;;4969911;28;20037;-40
2023/04/17 09:10:52;;;;;;;16.50;2.33;;;;;;;;;;4968358;28;20051;-43
2023/04/17 09:13:20;;;;;;;3.15;1.75;;;;;;;;;;4967053;28;20480;-41
2023/04/17 09:15:47;;;;;;;4.68;1.92;;;;;;;;;;4968532;28;20097;-45
2023/04/17 09:18:29;;;;;;;2.70;2.50;;;;;;;;;;4964273;28;20151;-44
2023/04/17 09:20:56;;;;;;;1.83;1.73;;;;;;;;;;4967686;28;20070;-41
2023/04/17 09:23:22;;;;;;;5.10;1.85;;;;;;;;;;4967711;28;20031;-44
2023/04/17 09:26:07;;;;;;;1.90;1.80;;;;;;;;;;4968068;28;20046;-45
2023/04/17 09:28:38;;;;;;;2.15;2.00;;;;;;;;;;4965210;28;20122;-43
2023/04/17 09:31:05;;;;;;;2.45;1.83;;;;;;;;;;4966184;28;20526;-40
2023/04/17 09:33:31;;;;;;;4.05;1.85;;;;;;;;;;4966035;28;20059;-44
2023/04/17 09:36:22;;;;;;;2.42;2.30;;;;;;;;;;4967866;28;20093;-46
2023/04/17 09:38:48;;;;;;;5.18;1.95;;;;;;;;;;4964633;28;20480;-40
2023/04/17 09:41:28;;;;;;;2.88;2.38;;;;;;;;;;4968017;28;20043;-42
2023/04/17 09:44:04;;;;;;;2.97;2.17;;;;;;;;;;4965762;28;20038;-41
2023/04/17 09:46:41;;;;;;;2.60;2.03;;;;;;;;;;4964464;28;20070;-44
2023/04/17 09:49:28;;;;;;;2.13;2.00;;;;;;;;;;4968562;28;20089;-41
2023/04/17 09:51:55;;;;;;;2.50;1.75;;;;;;;;;;4964761;28;20083;-41
2023/04/17 09:54:22;;;;;;;2.72;2.40;;;;;;;;;;4968157;28;20058;-46
2023/04/17 09:56:48;;;;;;;2.28;1.95;;;;;;;;;;4965130;28;20117;-41
2023/04/17 09:59:14;;;;;;;2.10;2.00;;;;;;;;;;4967600;28;20491;-45
2023/04/17 10:01:41;;;;;;;1.80;1.70;;;;;;;;;;4967790;28;20058;-43
2023/04/17 10:04:06;;;;;;;2.10;1.92;;;;;;;;;;4964628;28;20485;-43
2023/04/17 10:06:33;;;;;;;2.53;1.83;;;;;;;;;;4967110;28;20046;-42
2023/04/17 10:08:59;;;;;;;2.63;1.98;;;;;;;;;;4961376;28;20031;-49
2023/04/17 10:11:28;;;;;;;2.72;1.90;;;;;;;;;;4969489;28;20707;-47
2023/04/17 10:14:20;;;;;;;5.50;2.10;;;;;;;;;;4963579;28;20061;-42
2023/04/17 10:16:46;;;;;;;3.33;1.92;;;;;;;;;;4966546;28;20046;-41
2023/04/17 10:19:31;;;;;;;4.25;1.67;;;;;;;;;;4963835;28;20121;-42
2023/04/17 10:22:14;;;;;;;2.03;1.83;;;;;;;;;;4964422;28;20500;-45
2023/04/17 10:24:40;;;;;;;1.85;1.70;;;;;;;;;;4966205;28;20472;-43
2023/04/17 10:27:24;;;;;;;3.78;2.00;;;;;;;;;;4966289;28;20091;-40
2023/04/17 10:29:53;;;;;;;1.75;1.65;;;;;;;;;;4967025;28;20023;-44
2023/04/17 10:32:19;;;;;;;3.97;1.73;;;;;;;;;;4966560;28;20034;-46
2023/04/17 10:34:45;;;;;;;2.15;1.60;;;;;;;;;;4967454;28;20372;-47
2023/04/17 10:37:17;;;;;;;2.97;2.65;;;;;;;;;;4962977;28;20134;-41
2023/04/17 10:39:57;;;;;;;6.63;1.80;;;;;;;;;;4963672;28;20502;-41
2023/04/17 10:42:24;;;;;;;2.78;2.15;;;;;;;;;;4967215;28;20050;-41
2023/04/17 10:44:54;;;;;;;4.85;2.10;;;;;;;;;;4967950;28;20050;-41
2023/04/17 10:47:21;;;;;;;4.70;2.33;;;;;;;;;;4967925;28;20038;-41
2023/04/17 10:50:06;;;;;;;4.95;2.67;;;;;;;;;;4966913;28;20038;-42
2023/04/17 10:52:31;;;;;;;4.20;2.30;;;;;;;;;;4962395;28;20058;-42
2023/04/17 10:55:20;;;;;;;5.03;2.47;;;;;;;;;;4967395;28;20031;-44
2023/04/17 10:57:54;;;;;;;2.53;2.17;;;;;;;;;;4966626;28;20085;-41
2023/04/17 11:00:30;;;;;;;6.25;1.70;;;;;;;;;;4960771;28;20035;-46
2023/04/17 11:02:55;;;;;;;3.80;2.13;;;;;;;;;;4966750;28;20038;-43
2023/04/17 11:05:22;;;;;;;2.30;2.20;;;;;;;;;;4966575;28;20516;-40
2023/04/17 11:07:49;;;;;;;7.70;1.88;;;;;;;;;;4965680;28;20492;-40
2023/04/17 11:10:17;;;;;;;2.35;1.60;;;;;;;;;;4964353;28;20042;-41
2023/04/17 11:12:55;;;;;;;2.95;1.90;;;;;;;;;;4964641;28;20031;-41
2023/04/17 11:15:28;;;;;;;1.75;1.65;;;;;;;;;;4965707;28;20027;-41
2023/04/17 11:17:55;;;;;;;1.52;1.42;;;;;;;;;;4963874;28;20031;-46
2023/04/17 11:20:24;;;;;;;3.05;1.60;;;;;;;;;;4965937;28;20026;-41
2023/04/17 11:22:50;;;;;;;2.05;1.92;;;;;;;;;;4966916;28;20034;-40
2023/04/17 11:25:26;;;;;;;1.73;1.60;;;;;;;;;;4967524;28;20037;-40
2023/04/17 11:28:04;;;;;;;1.60;1.50;;;;;;;;;;4963846;28;20031;-40
2023/04/17 11:30:34;;;;;;;3.80;1.60;;;;;;;;;;4964362;28;20101;-40
2023/04/17 11:33:06;;;;;;;2.17;1.63;;;;;;;;;;4967009;28;20027;-45
2023/04/17 11:35:34;;;;;;;2.25;1.67;;;;;;;;;;4967762;28;20059;-40
2023/04/17 11:38:23;;;;;;;2.88;1.70;;;;;;;;;;4968002;28;20050;-45
2023/04/17 11:40:59;;;;;;;1.85;1.75;;;;;;;;;;4963077;28;20050;-44
2023/04/17 11:43:26;;;;;;;1.85;1.58;;;;;;;;;;4962579;28;20034;-41
2023/04/17 11:45:55;;;;;;;2.88;1.80;;;;;;;;;;4973486;28;20042;-46
2023/04/17 11:48:22;;;;;;;1.90;1.80;;;;;;;;;;4972911;28;20038;-40
2023/04/17 11:50:47;;;;;;;3.85;1.83;;;;;;;;;;4969642;28;20377;-41
2023/04/17 11:53:16;;;;;;;4.88;1.65;;;;;;;;;;4974640;28;20042;-47
2023/04/17 11:55:43;;;;;;;1.95;1.70;;;;;;;;;;4969254;28;20062;-40
2023/04/17 11:58:10;;;;;;;4.00;1.60;;;;;;;;;;4974254;28;20030;-45
2023/04/17 12:00:37;;;;;;;1.90;1.67;;;;;;;;;;4969012;28;20047;-48
2023/04/17 12:03:26;;;;;;;3.17;1.80;;;;;;;;;;4968328;28;20097;-41
2023/04/17 12:06:03;;;;;;;2.95;1.80;;;;;;;;;;4968814;28;20042;-47
2023/04/17 12:08:29;;;;;;;1.25;1.17;;;;;;;;;;4972564;28;20035;-41
2023/04/17 12:10:58;;;;;;;1.65;1.55;;;;;;;;;;4973218;28;20039;-47
2023/04/17 12:13:24;;;;;;;8.23;1.38;;;;;;;;;;4972159;28;20026;-45
2023/04/17 12:15:50;;;;;;;1.77;1.58;;;;;;;;;;4973975;28;20062;-45
2023/04/17 12:18:15;;;;;;;1.63;1.42;;;;;;;;;;4968131;28;20031;-47
2023/04/17 12:20:41;;;;;;;1.50;1.40;;;;;;;;;;4969872;28;20051;-41
2023/04/17 12:23:07;;;;;;;1.88;1.33;;;;;;;;;;4972580;28;20025;-40
2023/04/17 12:25:33;;;;;;;2.97;1.20;;;;;;;;;;4971009;28;20431;-40
2023/04/17 12:27:59;;;;;;;1.92;1.20;;;;;;;;;;4972516;28;20041;-41
2023/04/17 12:30:25;;;;;;;6.03;1.35;;;;;;;;;;4972457;28;20053;-40
2023/04/17 12:32:52;;;;;;;2.50;1.73;;;;;;;;;;4973786;28;20042;-41
2023/04/17 12:35:18;;;;;;;1.77;1.65;;;;;;;;;;4967174;28;20030;-40
2023/04/17 12:37:47;;;;;;;1.10;1.10;;;;;;;;;;4953513;28;20046;-40
2023/04/17 12:40:22;;;;;;;1.58;1.48;;;;;;;;;;4949107;28;20547;-40
2023/04/17 12:42:48;;;;;;;2.17;1.60;;;;;;;;;;4969731;28;20050;-44
2023/04/17 12:45:14;;;;;;;2.53;1.27;;;;;;;;;;4967202;28;20074;-44
2023/04/17 12:47:41;;;;;;;1.83;1.50;;;;;;;;;;4971212;28;20449;-42
2023/04/17 12:50:07;;;;;;;2.97;1.50;;;;;;;;;;4974099;28;20030;-42
2023/04/17 12:52:33;;;;;;;2.97;1.35;;;;;;;;;;4971631;28;20031;-40
2023/04/17 12:54:58;;;;;;;1.48;1.38;;;;;;;;;;4971269;28;20037;-41
2023/04/17 12:57:27;;;;;;;2.00;1.63;;;;;;;;;;4969201;28;20066;-40
2023/04/17 12:59:53;;;;;;;4.55;1.17;;;;;;;;;;4970564;28;20030;-40
2023/04/17 13:02:19;;;;;;;1.60;1.40;;;;;;;;;;4969763;28;20054;-40
2023/04/17 13:04:46;;;;;;;1.80;1.58;;;;;;;;;;4968755;28;20085;-44
2023/04/17 13:07:12;;;;;;;1.63;1.45;;;;;;;;;;4967225;28;20042;-40
2023/04/17 13:09:37;;;;;;;4.72;1.52;;;;;;;;;;4967107;28;20046;-41
2023/04/17 13:12:03;;;;;;;4.78;1.40;;;;;;;;;;4969934;28;20046;-40
2023/04/17 13:14:29;;;;;;;1.98;1.80;;;;;;;;;;4968199;28;20027;-40
2023/04/17 13:16:55;;;;;;;1.60;1.50;;;;;;;;;;4968044;28;20508;-40
2023/04/17 13:19:20;;;;;;;2.83;1.30;;;;;;;;;;4965821;28;20656;-41
2023/04/17 13:21:46;;;;;;;6.60;1.75;;;;;;;;;;4969845;28;20041;-40
2023/04/17 13:24:13;;;;;;;3.55;1.55;;;;;;;;;;4970664;28;20031;-40
2023/04/17 13:26:39;;;;;;;2.53;1.70;;;;;;;;;;4967638;28;20049;-40
2023/04/17 13:29:05;;;;;;;1.30;1.20;;;;;;;;;;4970131;28;20031;-40
2023/04/17 13:31:31;;;;;;;2.92;1.45;;;;;;;;;;4968880;28;20042;-41
2023/04/17 13:33:56;;;;;;;4.78;1.70;;;;;;;;;;4968924;28;20030;-40
2023/04/17 13:36:21;;;;;;;2.30;1.20;;;;;;;;;;4966572;28;20074;-41
2023/04/17 13:38:47;;;;;;;1.60;1.50;;;;;;;;;;4966129;28;20030;-42
2023/04/17 13:41:12;;;;;;;1.60;1.50;;;;;;;;;;4964008;28;20035;-44
2023/04/17 13:43:38;;;;;;;3.30;1.65;;;;;;;;;;4965529;28;20030;-40
2023/04/17 13:46:04;;;;;;;1.67;1.58;;;;;;;;;;4964083;28;20043;-40
2023/04/17 13:48:29;;;;;;;3.45;1.67;;;;;;;;;;4968071;28;20027;-40
2023/04/17 13:50:54;;;;;;;4.13;1.50;;;;;;;;;;4967025;28;20699;-41
2023/04/17 13:53:20;;;;;;;1.50;1.40;;;;;;;;;;4964246;28;20041;-42
2023/04/17 13:55:45;;;;;;;2.95;1.90;;;;;;;;;;4967272;28;20062;-44
2023/04/17 13:58:10;;;;;;;3.00;1.70;;;;;;;;;;4963696;28;20037;-41
2023/04/17 14:00:36;;;;;;;5.80;1.40;;;;;;;;;;4965277;28;20043;-40
2023/04/17 14:03:01;;;;;;;2.67;1.40;;;;;;;;;;4963708;28;20046;-42
2023/04/17 14:05:27;;;;;;;1.83;1.33;;;;;;;;;;4968574;28;20092;-41
2023/04/17 14:07:52;;;;;;;1.65;1.30;;;;;;;;;;4965547;28;20045;-40
2023/04/17 14:10:17;;;;;;;3.75;1.58;;;;;;;;;;4964626;28;20447;-41
2023/04/17 14:12:43;;;;;;;2.33;1.30;;;;;;;;;;4967462;28;20033;-41
2023/04/17 14:15:09;;;;;;;4.43;1.48;;;;;;;;;;4965535;28;20019;-40
2023/04/17 14:17:37;;;;;;;1.45;1.35;;;;;;;;;;4968895;28;20023;-41
2023/04/17 14:20:03;;;;;;;7.10;1.58;;;;;;;;;;4968374;28;20038;-41
2023/04/17 14:22:28;;;;;;;2.67;1.55;;;;;;;;;;4967689;28;20045;-40
2023/04/17 14:24:53;;;;;;;3.90;1.55;;;;;;;;;;4963547;28;20062;-45
2023/04/17 14:27:19;;;;;;;1.85;1.50;;;;;;;;;;4968711;28;20066;-40
2023/04/17 14:29:44;;;;;;;1.40;1.30;;;;;;;;;;4965863;28;20106;-43
2023/04/17 14:32:10;;;;;;;4.55;1.60;;;;;;;;;;4961832;28;20031;-43
2023/04/17 14:34:35;;;;;;;1.48;1.30;;;;;;;;;;4962085;28;20046;-41
2023/04/17 14:37:01;;;;;;;1.17;1.08;;;;;;;;;;4962133;28;20050;-40
2023/04/17 14:39:26;;;;;;;2.75;1.70;;;;;;;;;;4968154;28;20529;-40
2023/04/17 14:41:51;;;;;;;1.80;1.70;;;;;;;;;;4967006;28;20059;-41
2023/04/17 14:44:17;;;;;;;2.58;1.60;;;;;;;;;;4963941;28;20018;-40